createdAt,value
2023-04-02T00:01:52.721Z,93.05
2023-04-02T00:04:24.127Z,93.31
2023-04-02T00:07:01.218Z,93.99
2023-04-02T00:09:34.125Z,93.92
2023-04-02T00:12:18.985Z,95.16
2023-04-02T00:14:52.161Z,95.07
2023-04-02T00:17:26.649Z,95.79
2023-04-02T00:20:08.983Z,95.43
2023-04-02T00:22:41.870Z,95.65
2023-04-02T00:25:15.927Z,94.86
2023-04-02T00:27:46.256Z,95.72
2023-04-02T00:30:16.385Z,95.67
2023-04-02T00:32:47.469Z,95.04
2023-04-02T00:35:25.916Z,95.01
2023-04-02T00:37:57.344Z,94.90
2023-04-02T00:40:33.301Z,95.28
2023-04-02T00:43:06.121Z,95.34
2023-04-02T00:45:38.743Z,95.62
2023-04-02T00:48:24.508Z,95.17
2023-04-02T00:50:55.423Z,95.70
2023-04-02T00:53:30.858Z,95.70
2023-04-02T00:56:00.624Z,94.66
2023-04-02T00:58:33.058Z,94.42
2023-04-02T01:01:04.390Z,93.71
2023-04-02T01:03:38.900Z,93.03
2023-04-02T01:06:17.064Z,93.14
2023-04-02T01:09:12.633Z,93.14
2023-04-02T01:12:07.848Z,92.29
2023-04-02T01:15:01.519Z,92.91
2023-04-02T01:17:49.173Z,92.81
2023-04-02T01:20:37.154Z,92.19
2023-04-02T01:23:23.049Z,92.00
2023-04-02T01:26:26.313Z,91.40
2023-04-02T01:29:14.183Z,91.03
2023-04-02T01:31:46.886Z,90.44
2023-04-02T01:34:19.836Z,90.38
2023-04-02T01:37:01.363Z,90.41
2023-04-02T01:39:45.802Z,90.41
2023-04-02T01:42:18.494Z,91.75
2023-04-02T01:44:56.405Z,92.28
2023-04-02T01:47:28.967Z,91.65
2023-04-02T01:50:04.765Z,91.99
2023-04-02T01:52:43.462Z,92.03
2023-04-02T01:55:17.433Z,92.18
2023-04-02T01:57:53.437Z,91.32
2023-04-02T02:00:24.129Z,91.65
2023-04-02T02:02:56.077Z,91.00
2023-04-02T02:05:27.925Z,91.65
2023-04-02T02:08:01.256Z,91.11
2023-04-02T02:10:36.469Z,91.25
2023-04-02T02:13:06.713Z,91.64
2023-04-02T02:15:37.803Z,92.63
2023-04-02T02:18:12.035Z,90.85
2023-04-02T02:20:42.410Z,90.50
2023-04-02T02:23:13.736Z,90.13
2023-04-02T02:25:47.727Z,91.35
2023-04-02T02:28:26.549Z,90.68
2023-04-02T02:31:02.725Z,91.17
2023-04-02T02:33:41.540Z,90.76
2023-04-02T02:36:29.629Z,91.59
2023-04-02T02:39:20.715Z,91.01
2023-04-02T02:41:59.915Z,90.31
2023-04-02T02:44:37.999Z,90.76
2023-04-02T02:47:19.677Z,90.12
2023-04-02T02:52:44.467Z,89.46
2023-04-02T02:55:21.848Z,89.19
2023-04-02T02:57:56.744Z,89.10
2023-04-02T03:00:28.333Z,90.06
2023-04-02T03:02:59.653Z,89.29
2023-04-02T03:05:31.895Z,89.38
2023-04-02T03:08:06.671Z,89.64
2023-04-02T03:10:48.027Z,89.82
2023-04-02T03:13:26.794Z,89.87
2023-04-02T03:16:36.130Z,89.87
2023-04-02T03:19:26.843Z,89.92
2023-04-02T03:22:01.433Z,90.15
2023-04-02T03:24:52.340Z,90.15
2023-04-02T03:27:26.094Z,90.32
2023-04-02T03:30:24.333Z,88.91
2023-04-02T03:32:58.075Z,89.12
2023-04-02T03:35:45.692Z,88.92
2023-04-02T03:41:01.095Z,87.96
2023-04-02T03:43:37.525Z,88.46
2023-04-02T03:46:12.530Z,89.41
2023-04-02T03:48:48.575Z,88.95
2023-04-02T03:51:33.819Z,89.31
2023-04-02T03:54:06.310Z,88.53
2023-04-02T03:56:41.421Z,87.51
2023-04-02T03:59:16.145Z,87.74
2023-04-02T04:02:22.051Z,86.93
2023-04-02T04:04:52.164Z,87.50
2023-04-02T04:07:31.103Z,88.58
2023-04-02T04:10:02.855Z,88.06
2023-04-02T04:12:39.954Z,87.31
2023-04-02T04:15:27.773Z,86.42
2023-04-02T04:18:16.837Z,86.51
2023-04-02T04:20:57.084Z,87.32
2023-04-02T04:23:37.890Z,86.61
2023-04-02T04:26:20.957Z,86.85
2023-04-02T04:29:22.349Z,87.33
2023-04-02T04:31:55.823Z,86.52
2023-04-02T04:34:36.378Z,86.44
2023-04-02T04:37:11.219Z,86.90
2023-04-02T04:39:46.559Z,87.00
2023-04-02T04:42:20.111Z,86.41
2023-04-02T04:45:01.691Z,87.42
2023-04-02T04:47:35.915Z,86.81
2023-04-02T04:50:15.464Z,87.27
2023-04-02T04:52:45.391Z,87.78
2023-04-02T04:55:27.309Z,87.34
2023-04-02T04:58:20.282Z,87.21
2023-04-02T05:01:24.562Z,86.19
2023-04-02T05:04:13.880Z,86.21
2023-04-02T05:06:55.642Z,86.23
2023-04-02T05:09:34.384Z,86.22
2023-04-02T05:12:24.331Z,85.33
2023-04-02T05:14:57.116Z,85.33
2023-04-02T05:17:45.016Z,85.49
2023-04-02T05:20:23.692Z,84.68
2023-04-02T05:23:08.832Z,84.38
2023-04-02T05:25:41.259Z,84.01
2023-04-02T05:28:23.371Z,83.64
2023-04-02T05:31:00.729Z,83.24
2023-04-02T05:33:34.666Z,83.58
2023-04-02T05:36:14.273Z,83.57
2023-04-02T05:38:48.026Z,82.77
2023-04-02T05:41:38.209Z,83.33
2023-04-02T05:44:18.380Z,83.02
2023-04-02T05:46:54.504Z,83.15
2023-04-02T05:49:31.938Z,83.04
2023-04-02T05:52:07.745Z,82.75
2023-04-02T05:54:40.976Z,82.78
2023-04-02T05:57:29.573Z,82.05
2023-04-02T05:59:57.601Z,82.54
2023-04-02T06:02:36.727Z,82.66
2023-04-02T06:05:11.337Z,82.68
2023-04-02T06:07:56.089Z,82.60
2023-04-02T06:10:31.525Z,82.60
2023-04-02T06:13:07.716Z,82.10
2023-04-02T06:15:39.948Z,82.20
2023-04-02T06:18:23.360Z,81.87
2023-04-02T06:20:54.459Z,81.61
2023-04-02T06:23:31.107Z,80.69
2023-04-02T06:26:22.350Z,80.69
2023-04-02T06:29:03.790Z,79.92
2023-04-02T06:31:53.357Z,79.50
2023-04-02T06:34:26.582Z,79.64
2023-04-02T06:37:20.862Z,79.93
2023-04-02T06:39:52.151Z,79.95
2023-04-02T06:42:25.514Z,79.31
2023-04-02T06:45:21.407Z,79.35
2023-04-02T06:47:55.397Z,78.24
2023-04-02T06:50:38.509Z,78.57
2023-04-02T06:53:11.782Z,78.57
2023-04-02T06:55:56.052Z,78.19
2023-04-02T06:58:27.310Z,78.17
2023-04-02T07:00:57.673Z,78.62
2023-04-02T07:03:34.110Z,78.57
2023-04-02T07:06:17.232Z,78.81
2023-04-02T07:08:48.584Z,78.98
2023-04-02T07:11:21.723Z,78.43
2023-04-02T07:13:53.606Z,78.54
2023-04-02T07:16:26.381Z,78.81
2023-04-02T07:18:59.796Z,79.18
2023-04-02T07:21:31.841Z,79.34
2023-04-02T07:24:01.710Z,79.46
2023-04-02T07:26:31.273Z,78.18
2023-04-02T07:29:01.091Z,78.97
2023-04-02T07:31:30.962Z,78.38
2023-04-02T07:34:02.152Z,78.13
2023-04-02T07:36:32.022Z,78.46
2023-04-02T07:39:02.083Z,78.39
2023-04-02T07:41:32.001Z,78.39
2023-04-02T07:44:01.884Z,76.66
2023-04-02T07:46:31.859Z,76.74
2023-04-02T07:49:01.798Z,76.53
2023-04-02T07:51:31.622Z,75.43
2023-04-02T07:54:01.697Z,76.89
2023-04-02T07:56:31.695Z,76.20
2023-04-02T07:59:01.805Z,76.22
2023-04-02T08:01:35.551Z,76.24
2023-04-02T08:04:07.919Z,75.72
2023-04-02T08:06:37.864Z,76.80
2023-04-02T08:09:07.966Z,76.19
2023-04-02T08:11:37.747Z,76.14
2023-04-02T08:14:11.293Z,76.30
2023-04-02T08:16:52.873Z,76.57
2023-04-02T08:19:23.451Z,77.08
2023-04-02T08:21:53.696Z,76.79
2023-04-02T08:24:23.962Z,76.27
2023-04-02T08:26:54.337Z,76.42
2023-04-02T08:29:24.568Z,76.12
2023-04-02T08:31:54.479Z,76.28
2023-04-02T08:34:24.338Z,77.28
2023-04-02T08:36:57.236Z,76.23
2023-04-02T08:39:28.678Z,75.50
2023-04-02T08:42:01.666Z,75.07
2023-04-02T08:45:17.153Z,75.24
2023-04-02T08:47:40.958Z,76.14
2023-04-02T08:50:29.043Z,75.84
2023-04-02T08:53:01.296Z,75.36
2023-04-02T08:55:55.693Z,75.65
2023-04-02T08:58:28.629Z,75.85
2023-04-02T09:01:01.848Z,76.30
2023-04-02T09:03:43.682Z,75.68
2023-04-02T09:06:16.893Z,75.37
2023-04-02T09:08:49.694Z,76.11
2023-04-02T09:11:59.491Z,76.12
2023-04-02T09:14:32.638Z,75.92
2023-04-02T09:17:04.682Z,75.55
2023-04-02T09:19:37.591Z,74.91
2023-04-02T09:22:17.307Z,74.27
2023-04-02T09:24:48.681Z,75.54
2023-04-02T09:27:24.091Z,74.92
2023-04-02T09:29:56.899Z,74.98
2023-04-02T09:32:45.607Z,75.07
2023-04-02T09:35:25.539Z,74.69
2023-04-02T09:37:51.186Z,73.54
2023-04-02T09:40:27.097Z,73.54
2023-04-02T09:43:06.242Z,72.79
2023-04-02T09:45:36.203Z,73.77
2023-04-02T09:48:26.324Z,72.55
2023-04-02T09:51:13.823Z,72.02
2023-04-02T09:53:49.373Z,71.76
2023-04-02T09:56:23.113Z,71.13
2023-04-02T09:59:16.548Z,71.35
2023-04-02T10:01:58.120Z,71.28
2023-04-02T10:04:45.840Z,70.34
2023-04-02T10:07:36.904Z,70.79
2023-04-02T10:13:11.879Z,70.02
2023-04-02T10:15:47.536Z,70.02
2023-04-02T10:18:44.509Z,69.40
2023-04-02T10:21:14.835Z,69.54
2023-04-02T10:23:44.925Z,68.41
2023-04-02T10:26:27.300Z,69.14
2023-04-02T10:29:16.765Z,69.18
2023-04-02T10:31:49.617Z,69.99
2023-04-02T10:34:27.934Z,69.24
2023-04-02T10:37:01.276Z,69.41
2023-04-02T10:39:36.592Z,68.67
2023-04-02T10:44:59.442Z,68.48
2023-04-02T10:47:32.588Z,68.00
2023-04-02T10:50:21.680Z,68.00
2023-04-02T10:53:19.299Z,68.39
2023-04-02T10:55:58.038Z,67.92
2023-04-02T10:58:29.970Z,67.92
2023-04-02T11:01:02.827Z,68.21
2023-04-02T11:03:40.007Z,67.25
2023-04-02T11:06:19.701Z,67.68
2023-04-02T11:08:52.852Z,67.63
2023-04-02T11:11:31.473Z,67.96
2023-04-02T11:14:19.097Z,67.62
2023-04-02T11:16:51.370Z,67.08
2023-04-02T11:19:24.069Z,67.08
2023-04-02T11:22:03.273Z,65.34
2023-04-02T11:24:47.454Z,63.85
2023-04-02T11:27:30.238Z,61.89
2023-04-02T11:30:10.939Z,61.98
2023-04-02T11:32:47.237Z,61.40
2023-04-02T11:35:38.167Z,61.40
2023-04-02T11:38:14.644Z,60.66
2023-04-02T11:40:50.388Z,60.57
2023-04-02T11:43:38.083Z,60.02
2023-04-02T11:46:31.414Z,60.08
2023-04-02T11:49:12.904Z,58.34
2023-04-02T11:54:30.579Z,57.08
2023-04-02T11:57:09.462Z,57.31
2023-04-02T11:59:45.234Z,56.00
2023-04-02T12:02:23.422Z,55.44
2023-04-02T12:05:26.207Z,57.64
2023-04-02T12:08:11.016Z,53.82
2023-04-02T12:11:01.910Z,52.71
2023-04-02T12:13:46.567Z,53.49
2023-04-02T12:16:18.445Z,52.22
2023-04-02T12:18:55.034Z,53.10
2023-04-02T12:21:27.675Z,52.14
2023-04-02T12:23:59.979Z,52.00
2023-04-02T12:26:38.539Z,51.64
2023-04-02T12:29:27.974Z,51.23
2023-04-02T12:32:00.625Z,51.23
2023-04-02T12:34:31.644Z,50.66
2023-04-02T12:37:03.467Z,51.29
2023-04-02T12:39:35.624Z,50.36
2023-04-02T12:42:07.038Z,50.10
2023-04-02T12:44:36.927Z,49.11
2023-04-02T12:47:07.029Z,50.06
2023-04-02T12:49:41.998Z,50.27
2023-04-02T12:52:20.055Z,50.27
2023-04-02T12:55:05.014Z,49.17
2023-04-02T12:57:37.065Z,50.97
2023-04-02T13:00:26.532Z,50.81
2023-04-02T13:03:08.695Z,51.72
2023-04-02T13:05:44.072Z,50.92
2023-04-02T13:08:28.886Z,51.22
2023-04-02T13:11:01.663Z,49.20
2023-04-02T13:13:37.762Z,49.59
2023-04-02T13:16:20.308Z,48.61
2023-04-02T13:18:51.528Z,48.38
2023-04-02T13:21:29.554Z,50.13
2023-04-02T13:23:59.783Z,47.82
2023-04-02T13:26:30.805Z,47.82
2023-04-02T13:29:12.100Z,48.04
2023-04-02T13:31:42.236Z,48.87
2023-04-02T13:34:13.929Z,48.38
2023-04-02T13:36:43.961Z,48.11
2023-04-02T13:39:14.387Z,48.50
2023-04-02T13:41:47.026Z,47.19
2023-04-02T13:44:22.217Z,46.77
2023-04-02T13:46:52.078Z,46.65
2023-04-02T13:49:23.005Z,47.00
2023-04-02T13:51:58.816Z,47.00
2023-04-02T13:54:34.930Z,46.62
2023-04-02T13:57:04.925Z,46.05
2023-04-02T13:59:35.220Z,46.63
2023-04-02T14:02:13.938Z,46.33
2023-04-02T14:04:49.257Z,46.66
2023-04-02T14:07:39.702Z,46.93
2023-04-02T14:10:26.782Z,46.92
2023-04-02T14:13:02.581Z,46.59
2023-04-02T14:15:57.812Z,45.52
2023-04-02T14:18:41.213Z,44.63
2023-04-02T14:21:19.645Z,45.65
2023-04-02T14:23:58.479Z,45.74
2023-04-02T14:26:31.349Z,45.74
2023-04-02T14:29:12.362Z,45.46
2023-04-02T14:32:04.253Z,45.56
2023-04-02T14:34:57.710Z,46.05
2023-04-02T14:37:55.841Z,45.54
2023-04-02T14:40:34.675Z,45.32
2023-04-02T14:43:13.434Z,44.95
2023-04-02T14:45:46.318Z,44.95
2023-04-02T14:48:27.465Z,44.21
2023-04-02T14:51:15.378Z,45.47
2023-04-02T14:54:06.006Z,45.48
2023-04-02T14:56:38.881Z,45.15
2023-04-02T14:59:11.778Z,44.16
2023-04-02T15:01:44.443Z,45.42
2023-04-02T15:04:17.117Z,44.84
2023-04-02T15:06:53.091Z,45.58
2023-04-02T15:09:28.867Z,45.07
2023-04-02T15:12:22.050Z,45.59
2023-04-02T15:14:57.584Z,43.44
2023-04-02T15:17:28.069Z,44.14
2023-04-02T15:20:01.057Z,43.71
2023-04-02T15:22:50.026Z,43.73
2023-04-02T15:25:38.041Z,44.65
2023-04-02T15:28:31.186Z,44.16
2023-04-02T15:31:04.021Z,44.19
2023-04-02T15:33:48.648Z,44.52
2023-04-02T15:36:31.404Z,44.14
2023-04-02T15:39:11.207Z,45.00
2023-04-02T15:41:49.774Z,45.00
2023-04-02T15:44:19.441Z,44.51
2023-04-02T15:47:16.362Z,44.27
2023-04-02T15:50:04.536Z,44.93
2023-04-02T15:52:52.329Z,45.02
2023-04-02T15:55:24.982Z,45.50
2023-04-02T15:58:23.459Z,44.89
2023-04-02T16:01:11.459Z,46.32
2023-04-02T16:03:56.669Z,45.67
2023-04-02T16:06:32.384Z,45.67
2023-04-02T16:09:32.357Z,46.32
2023-04-02T16:12:14.328Z,45.83
2023-04-02T16:14:46.827Z,45.03
2023-04-02T16:17:40.629Z,46.03
2023-04-02T16:20:15.782Z,46.53
2023-04-02T16:22:59.466Z,46.26
2023-04-02T16:25:23.452Z,45.44
2023-04-02T16:28:04.901Z,45.16
2023-04-02T16:30:54.069Z,44.98
2023-04-02T16:33:43.154Z,45.75
2023-04-02T16:36:52.125Z,45.75
2023-04-02T16:39:36.417Z,45.37
2023-04-02T16:42:24.454Z,45.65
2023-04-02T16:45:25.554Z,45.32
2023-04-02T16:48:07.412Z,45.56
2023-04-02T16:50:55.484Z,45.48
2023-04-02T16:53:28.102Z,44.96
2023-04-02T16:56:09.795Z,45.76
2023-04-02T16:58:48.960Z,45.56
2023-04-02T17:01:24.256Z,45.53
2023-04-02T17:03:56.979Z,45.56
2023-04-02T17:06:35.931Z,45.31
2023-04-02T17:09:14.714Z,45.55
2023-04-02T17:11:50.222Z,45.72
2023-04-02T17:14:37.978Z,45.72
2023-04-02T17:17:11.500Z,46.57
2023-04-02T17:19:44.135Z,46.59
2023-04-02T17:22:17.673Z,46.59
2023-04-02T17:24:59.311Z,47.06
2023-04-02T17:27:41.524Z,46.69
2023-04-02T17:30:18.760Z,45.80
2023-04-02T17:32:48.895Z,45.90
2023-04-02T17:35:27.516Z,46.90
2023-04-02T17:38:06.796Z,47.68
2023-04-02T17:40:57.428Z,48.03
2023-04-02T17:43:43.825Z,48.27
2023-04-02T17:46:18.269Z,48.67
2023-04-02T17:48:50.554Z,49.14
2023-04-02T17:51:24.282Z,49.05
2023-04-02T17:54:14.730Z,48.70
2023-04-02T17:56:56.431Z,49.63
2023-04-02T17:59:32.520Z,50.88
2023-04-02T18:02:10.906Z,50.88
2023-04-02T18:04:46.711Z,50.41
2023-04-02T18:07:31.177Z,50.50
2023-04-02T18:10:10.340Z,51.27
2023-04-02T18:12:58.337Z,51.50
2023-04-02T18:15:43.411Z,51.80
2023-04-02T18:18:29.165Z,51.61
2023-04-02T18:21:07.341Z,52.14
2023-04-02T18:24:09.062Z,52.43
2023-04-02T18:26:58.888Z,53.36
2023-04-02T18:29:37.935Z,52.69
2023-04-02T18:32:29.939Z,52.75
2023-04-02T18:35:03.157Z,53.27
2023-04-02T18:37:53.967Z,53.00
2023-04-02T18:40:32.985Z,53.66
2023-04-02T18:43:31.713Z,54.39
2023-04-02T18:46:26.836Z,53.76
2023-04-02T18:49:21.543Z,55.54
2023-04-02T18:51:54.453Z,54.57
2023-04-02T18:54:39.533Z,56.37
2023-04-02T18:57:34.226Z,56.90
2023-04-02T19:00:22.140Z,57.68
2023-04-02T19:03:09.780Z,57.12
2023-04-02T19:05:51.734Z,57.62
2023-04-02T19:08:48.673Z,57.62
2023-04-02T19:11:23.007Z,57.29
2023-04-02T19:13:53.127Z,60.13
2023-04-02T19:16:46.903Z,60.45
2023-04-02T19:19:26.468Z,58.85
2023-04-02T19:22:01.909Z,60.09
2023-04-02T19:25:08.737Z,60.09
2023-04-02T19:27:41.609Z,60.06
2023-04-02T19:30:19.978Z,59.14
2023-04-02T19:33:09.155Z,61.39
2023-04-02T19:36:00.209Z,63.41
2023-04-02T19:38:58.230Z,63.50
2023-04-02T19:41:39.636Z,62.93
2023-04-02T19:44:13.858Z,61.41
2023-04-02T19:46:46.265Z,60.96
2023-04-02T19:49:20.082Z,60.48
2023-04-02T19:51:50.872Z,60.85
2023-04-02T19:54:20.766Z,61.38
2023-04-02T19:56:51.059Z,63.50
2023-04-02T19:59:21.326Z,62.35
2023-04-02T20:01:51.142Z,62.35
2023-04-02T20:04:21.064Z,61.80
2023-04-02T20:06:51.649Z,64.02
2023-04-02T20:09:21.728Z,64.82
2023-04-02T20:11:51.850Z,64.41
2023-04-02T20:14:22.163Z,65.08
2023-04-02T20:16:52.332Z,65.76
2023-04-02T20:19:22.947Z,65.84
2023-04-02T20:21:52.784Z,66.68
2023-04-02T20:24:22.592Z,66.06
2023-04-02T20:26:52.532Z,65.84
2023-04-02T20:29:24.498Z,65.84
2023-04-02T20:31:54.477Z,65.97
2023-04-02T20:34:24.214Z,66.17
2023-04-02T20:36:54.455Z,67.47
2023-04-02T20:39:24.852Z,67.67
2023-04-02T20:41:55.437Z,67.26
2023-04-02T20:44:25.051Z,66.17
2023-04-02T20:46:55.126Z,65.96
2023-04-02T20:49:24.963Z,67.57
2023-04-02T20:51:54.631Z,66.91
2023-04-02T20:54:24.117Z,67.06
2023-04-02T20:56:53.956Z,69.21
2023-04-02T20:59:23.765Z,69.21
2023-04-02T21:01:53.705Z,68.56
2023-04-02T21:04:23.332Z,68.91
2023-04-02T21:06:55.145Z,68.94
2023-04-02T21:09:25.437Z,68.95
2023-04-02T21:11:55.248Z,68.14
2023-04-02T21:14:24.900Z,69.58
2023-04-02T21:16:54.676Z,70.20
2023-04-02T21:19:24.473Z,69.58
2023-04-02T21:21:55.920Z,69.16
2023-04-02T21:24:25.687Z,69.79
2023-04-02T21:26:55.564Z,70.60
2023-04-02T21:29:25.766Z,71.13
2023-04-02T21:31:55.690Z,70.22
2023-04-02T21:34:25.367Z,70.42
2023-04-02T21:36:55.344Z,70.86
2023-04-02T21:39:25.681Z,70.86
2023-04-02T21:41:55.861Z,71.81
2023-04-02T21:44:25.937Z,71.39
2023-04-02T21:46:55.774Z,71.76
2023-04-02T21:49:27.157Z,72.19
2023-04-02T21:51:57.075Z,72.06
2023-04-02T21:54:27.158Z,72.09
2023-04-02T21:56:57.008Z,72.72
2023-04-02T21:59:27.321Z,72.75
2023-04-02T22:01:57.187Z,72.40
2023-04-02T22:04:29.261Z,72.64
2023-04-02T22:06:59.131Z,71.81
2023-04-02T22:09:29.565Z,72.88
2023-04-02T22:11:59.952Z,72.71
2023-04-02T22:14:30.629Z,71.83
2023-04-02T22:17:00.649Z,72.25
2023-04-02T22:19:32.541Z,72.58
2023-04-02T22:22:02.402Z,73.00
2023-04-02T22:24:32.578Z,72.90
2023-04-02T22:27:02.389Z,72.45
2023-04-02T22:29:33.334Z,71.71
2023-04-02T22:32:03.148Z,72.45
2023-04-02T22:34:33.204Z,72.22
2023-04-02T22:37:02.994Z,72.65
2023-04-02T22:39:33.078Z,73.24
2023-04-02T22:42:02.957Z,73.03
2023-04-02T22:44:33.083Z,73.64
2023-04-02T22:47:03.146Z,73.62
2023-04-02T22:49:33.280Z,73.52
2023-04-02T22:52:04.850Z,73.40
2023-04-02T22:54:34.947Z,73.87
2023-04-02T22:57:04.920Z,73.50
2023-04-02T22:59:35.008Z,73.58
2023-04-02T23:02:04.847Z,72.81
2023-04-02T23:04:35.450Z,72.55
2023-04-02T23:07:05.316Z,72.70
2023-04-02T23:09:35.596Z,73.37
2023-04-02T23:12:05.823Z,72.48
2023-04-02T23:14:35.946Z,72.32
2023-04-02T23:17:05.764Z,73.17
2023-04-02T23:19:35.894Z,72.42
2023-04-02T23:22:05.814Z,71.93
2023-04-02T23:24:35.965Z,71.93
2023-04-02T23:27:06.119Z,71.83
2023-04-02T23:29:36.234Z,71.16
2023-04-02T23:32:06.634Z,71.31
2023-04-02T23:34:36.803Z,70.62
2023-04-02T23:37:06.905Z,70.52
2023-04-02T23:39:37.005Z,71.48
2023-04-02T23:42:07.030Z,71.29
2023-04-02T23:44:36.882Z,71.28
2023-04-02T23:47:06.865Z,70.85
2023-04-02T23:49:36.748Z,70.73
2023-04-02T23:52:06.752Z,70.72
2023-04-02T23:54:36.539Z,71.03
2023-04-02T23:57:06.683Z,70.36
2023-04-02T23:59:36.810Z,70.23
